Terminal Aerodrome Forecast
Issued by NWS Bismarck, ND

Home | Current Version | Previous Version | Graphics & Text | Print | Product List | Glossary On
Versions: 1 2 3 4 5 6 7 8 9 10 11 12 13 14 15 16 17 18
148
FTUS43 KBIS 142348
TAFISN
TAF
KISN 142348Z 1500/1524 32012G17KT P6SM BKN200
     FM150200 32015G22KT P6SM SCT030
      TEMPO 1502/1504 BKN018
     FM150400 33011KT P6SM BKN015 OVC025
     FM151100 35008KT P6SM SCT035
     FM151600 VRB04KT P6SM BKN220
     FM152000 10005KT P6SM SCT150 BKN200=

USA.gov is the U.S. government's official web portal to all federal, state and local government web resources and services.